createdAt,value
2023-04-09T04:02:16.829Z,3.34
2023-04-09T04:06:24.051Z,3.23
2023-04-09T04:10:42.258Z,3.02
2023-04-09T04:14:46.917Z,3.04
2023-04-09T04:19:00.973Z,3.12
2023-04-09T04:23:06.553Z,3.18
2023-04-09T04:27:11.437Z,3.21
2023-04-09T04:31:14.381Z,3.22
2023-04-09T04:35:18.694Z,3.30
2023-04-09T04:39:22.217Z,3.28
2023-04-09T04:43:30.477Z,3.27
2023-04-09T04:47:35.213Z,3.33
2023-04-09T04:51:41.089Z,3.36
2023-04-09T04:55:47.644Z,3.49
2023-04-09T04:59:53.117Z,3.68
2023-04-09T05:03:56.067Z,3.92
2023-04-09T05:08:05.462Z,4.10
2023-04-09T05:12:08.221Z,4.20
2023-04-09T05:16:17.259Z,4.23
2023-04-09T05:20:21.366Z,4.33
2023-04-09T05:24:34.188Z,4.64
2023-04-09T05:28:37.001Z,4.82
2023-04-09T05:32:48.619Z,4.96
2023-04-09T05:36:52.322Z,5.21
2023-04-09T05:40:59.180Z,5.28
2023-04-09T05:45:02.106Z,5.16
2023-04-09T05:49:05.056Z,5.12
2023-04-09T05:53:09.216Z,5.19
2023-04-09T05:57:17.386Z,5.23
2023-04-09T06:01:27.116Z,5.44
2023-04-09T06:05:29.870Z,5.21
2023-04-09T06:09:32.411Z,5.31
2023-04-09T06:13:36.377Z,5.79
2023-04-09T06:17:38.921Z,6.24
2023-04-09T06:21:42.345Z,6.36
2023-04-09T06:25:44.880Z,6.41
2023-04-09T06:29:48.735Z,6.67
2023-04-09T06:33:51.652Z,6.76
2023-04-09T06:37:54.440Z,6.96
2023-04-09T06:41:56.936Z,7.26
2023-04-09T06:46:17.250Z,7.23
2023-04-09T06:50:19.835Z,7.10
2023-04-09T06:54:22.505Z,7.18
2023-04-09T06:58:25.052Z,7.53
2023-04-09T07:02:29.149Z,7.69
2023-04-09T07:06:31.843Z,7.68
2023-04-09T07:10:34.409Z,7.94
2023-04-09T07:14:36.957Z,8.36
2023-04-09T07:18:40.981Z,8.63
2023-04-09T07:22:43.523Z,8.81
2023-04-09T07:26:46.058Z,8.93
2023-04-09T07:30:48.594Z,9.01
2023-04-09T07:34:53.727Z,9.28
2023-04-09T07:38:56.276Z,9.39
2023-04-09T07:42:59.072Z,9.61
2023-04-09T07:47:01.840Z,9.75
2023-04-09T07:51:06.158Z,9.66
2023-04-09T07:55:09.095Z,9.75
2023-04-09T07:59:11.858Z,10.07
2023-04-09T08:03:14.653Z,10.17
2023-04-09T08:07:18.554Z,10.52
2023-04-09T08:11:25.162Z,10.53
2023-04-09T08:15:27.791Z,10.44
2023-04-09T08:19:30.433Z,10.43
2023-04-09T08:23:34.249Z,10.45
2023-04-09T08:27:37.054Z,10.47
2023-04-09T08:31:39.657Z,10.44
2023-04-09T08:35:42.556Z,10.48
2023-04-09T08:39:46.411Z,10.60
2023-04-09T08:43:57.610Z,10.61
2023-04-09T08:48:03.715Z,10.54
2023-04-09T08:52:06.485Z,10.64
2023-04-09T08:56:10.336Z,10.58
2023-04-09T09:00:13.980Z,10.43
2023-04-09T09:04:16.695Z,10.34
2023-04-09T09:08:24.591Z,10.24
2023-04-09T09:12:33.918Z,10.39
2023-04-09T09:16:40.272Z,10.48
2023-04-09T09:20:43.208Z,10.76
2023-04-09T09:24:50.701Z,10.95
2023-04-09T09:28:55.619Z,10.84
2023-04-09T09:33:07.042Z,11.10
2023-04-09T09:37:27.696Z,11.09
2023-04-09T09:41:30.904Z,11.68
2023-04-09T09:45:35.084Z,11.81
2023-04-09T09:49:37.653Z,11.79
2023-04-09T09:53:42.104Z,11.83
2023-04-09T09:57:45.967Z,12.41
2023-04-09T10:01:56.935Z,12.48
2023-04-09T10:06:02.438Z,12.58
2023-04-09T10:10:08.311Z,12.98
2023-04-09T10:14:11.017Z,13.23
2023-04-09T10:18:17.260Z,13.33
2023-04-09T10:22:24.315Z,13.81
2023-04-09T10:26:30.650Z,14.56
2023-04-09T10:30:33.502Z,15.00
2023-04-09T10:34:39.756Z,15.37
2023-04-09T10:38:46.759Z,14.69
2023-04-09T10:42:50.680Z,14.93
2023-04-09T10:46:54.906Z,14.18
2023-04-09T10:50:58.924Z,14.21
2023-04-09T10:55:01.449Z,14.31
2023-04-09T10:59:04.321Z,14.39
2023-04-09T11:03:24.400Z,14.52
2023-04-09T11:07:29.749Z,13.99
2023-04-09T11:11:33.659Z,13.91
2023-04-09T11:15:37.491Z,13.89
2023-04-09T11:19:40.175Z,14.37
2023-04-09T11:23:52.785Z,13.99
2023-04-09T11:27:55.586Z,14.08
2023-04-09T11:31:58.103Z,13.83
2023-04-09T11:36:01.707Z,13.61
2023-04-09T11:40:06.616Z,13.88
2023-04-09T11:44:09.294Z,13.97
2023-04-09T11:48:12.879Z,14.19
2023-04-09T11:52:16.882Z,14.17
2023-04-09T11:56:21.252Z,13.90
2023-04-09T12:00:24.956Z,14.20
2023-04-09T12:04:27.775Z,13.89
2023-04-09T12:08:31.147Z,14.01
2023-04-09T12:12:42.470Z,14.99
2023-04-09T12:16:45.644Z,15.05
2023-04-09T12:20:49.601Z,15.52
2023-04-09T12:24:52.132Z,15.31
2023-04-09T12:28:56.049Z,15.29
2023-04-09T12:32:59.695Z,15.00
2023-04-09T12:37:02.305Z,15.37
2023-04-09T12:41:05.057Z,15.73
2023-04-09T12:45:11.216Z,15.79
2023-04-09T12:49:14.441Z,15.77
2023-04-09T12:53:16.997Z,15.70
2023-04-09T12:57:19.576Z,15.65
2023-04-09T13:01:23.547Z,15.72
2023-04-09T13:05:26.152Z,15.89
2023-04-09T13:09:28.729Z,16.06
2023-04-09T13:13:31.500Z,16.05
2023-04-09T13:17:35.458Z,16.08
2023-04-09T13:21:38.141Z,16.16
2023-04-09T13:25:40.660Z,16.62
2023-04-09T13:29:43.234Z,16.45
2023-04-09T13:33:47.146Z,15.96
2023-04-09T13:37:49.721Z,16.44
2023-04-09T13:41:52.276Z,16.57
2023-04-09T13:45:55.124Z,16.81
2023-04-09T13:49:58.991Z,16.81
2023-04-09T13:54:02.781Z,16.77
2023-04-09T13:58:07.126Z,16.93
2023-04-09T14:02:10.165Z,16.82
2023-04-09T14:06:14.431Z,17.23
2023-04-09T14:10:17.120Z,17.43
2023-04-09T14:14:19.905Z,17.55
2023-04-09T14:18:22.454Z,17.55
2023-04-09T14:22:28.154Z,17.41
2023-04-09T14:26:30.802Z,17.69
2023-04-09T14:30:33.326Z,18.24
2023-04-09T14:34:36.568Z,19.00
2023-04-09T14:38:40.282Z,19.02
2023-04-09T14:42:42.700Z,19.38
2023-04-09T14:46:45.276Z,19.06
2023-04-09T14:50:51.167Z,19.48
2023-04-09T14:54:55.013Z,19.52
2023-04-09T14:58:57.562Z,19.61
2023-04-09T15:03:00.493Z,19.56
2023-04-09T15:07:03.166Z,20.17
2023-04-09T15:11:08.590Z,20.35
2023-04-09T15:15:13.368Z,19.79
2023-04-09T15:19:15.970Z,19.85
2023-04-09T15:23:18.523Z,20.38
2023-04-09T15:27:22.406Z,20.64
2023-04-09T15:31:24.975Z,20.51
2023-04-09T15:35:29.390Z,21.48
2023-04-09T15:39:32.486Z,20.93
2023-04-09T15:43:36.515Z,21.42
2023-04-09T15:47:39.051Z,21.80
2023-04-09T15:51:41.590Z,22.38
2023-04-09T15:55:44.125Z,22.48
2023-04-09T15:59:48.317Z,22.54
2023-04-09T16:03:52.179Z,22.07
2023-04-09T16:07:55.991Z,21.88
2023-04-09T16:12:00.160Z,21.28
2023-04-09T16:16:04.313Z,21.31
2023-04-09T16:20:08.545Z,21.32
2023-04-09T16:24:12.525Z,22.10
2023-04-09T16:28:15.834Z,22.74
2023-04-09T16:32:19.738Z,22.75
2023-04-09T16:36:22.383Z,21.80
2023-04-09T16:40:25.099Z,21.27
2023-04-09T16:44:27.616Z,21.75
2023-04-09T16:48:32.315Z,22.59
2023-04-09T16:52:36.640Z,22.21
2023-04-09T16:56:39.224Z,21.02
2023-04-09T17:00:44.078Z,21.01
2023-04-09T17:04:50.281Z,20.51
2023-04-09T17:08:52.991Z,20.53
2023-04-09T17:12:55.678Z,20.41
2023-04-09T17:16:58.795Z,19.68
2023-04-09T17:21:02.784Z,19.36
2023-04-09T17:25:05.790Z,18.81
2023-04-09T17:29:08.323Z,18.22
2023-04-09T17:33:12.108Z,18.03
2023-04-09T17:37:16.181Z,17.72
2023-04-09T17:41:18.805Z,17.17
2023-04-09T17:45:21.335Z,16.25
2023-04-09T17:49:23.873Z,15.38
2023-04-09T17:53:27.705Z,15.07
2023-04-09T17:57:30.225Z,14.69
2023-04-09T18:01:32.874Z,14.32
2023-04-09T18:05:36.382Z,13.98
2023-04-09T18:09:40.626Z,13.70
2023-04-09T18:13:43.206Z,13.32
2023-04-09T18:17:45.788Z,12.90
2023-04-09T18:21:48.448Z,12.92
2023-04-09T18:25:52.317Z,12.46
2023-04-09T18:29:55.834Z,12.20
2023-04-09T18:33:58.358Z,11.92
2023-04-09T18:38:01.102Z,11.50
2023-04-09T18:42:05.258Z,11.40
2023-04-09T18:46:07.837Z,11.39
2023-04-09T18:50:12.309Z,11.07
2023-04-09T18:54:15.502Z,10.74
2023-04-09T18:58:19.340Z,10.61
2023-04-09T19:02:22.003Z,10.67
2023-04-09T19:06:27.140Z,10.67
2023-04-09T19:10:29.906Z,10.08
2023-04-09T19:14:33.768Z,9.67
2023-04-09T19:18:36.467Z,9.50
2023-04-09T19:22:39.008Z,9.54
2023-04-09T19:26:41.556Z,9.72
2023-04-09T19:30:45.426Z,9.72
2023-04-09T19:34:47.955Z,9.48
2023-04-09T19:38:51.789Z,9.27
2023-04-09T19:42:55.949Z,9.03
2023-04-09T19:46:59.818Z,8.70
2023-04-09T19:51:02.962Z,8.63
2023-04-09T19:55:06.481Z,8.50
2023-04-09T19:59:08.909Z,8.61
2023-04-09T20:03:13.026Z,8.74
2023-04-09T20:07:16.389Z,8.48
2023-04-09T20:11:19.002Z,8.41
2023-04-09T20:15:21.598Z,8.31
2023-04-09T20:19:25.549Z,8.17
2023-04-09T20:23:28.063Z,8.10
2023-04-09T20:27:31.276Z,8.00
2023-04-09T20:31:34.950Z,7.85
2023-04-09T20:35:39.080Z,7.92
2023-04-09T20:39:41.686Z,7.82
2023-04-09T20:43:44.244Z,7.69
2023-04-09T20:47:46.857Z,7.50
2023-04-09T20:51:51.823Z,7.24
2023-04-09T20:55:54.501Z,7.04
2023-04-09T20:59:57.215Z,7.09
